Interior, SD

9:47 AM MST on December 10, 2016 (GMT -0700)
Cactus Flat | | Change Station

Elev 2530 ft 43.81 °N, 101.89 °W | Updated 9 seconds ago

Overcast
Overcast
3.7 °F
Feels Like -10 °F
N
8.3
Wind Variable Wind from East
Gusts 12.3 mph

Today
High -- | Low -- °F
--% Chance of Precip.
Yesterday
High -- | Low -- °F
Precip. -- in
Pressure 30.27 in
Visibility 9.0 miles
Clouds Overcast 2000 ft
Windchill -10 °F
Dew Point -4 °F
Humidity 70%
Rainfall 0.00 in
Snow Depth Not available.
7:11 AM 4:10 PM
Waxing Gibbous, 85% visible
METAR KPHP 101555Z AUTO 09012KT 9SM OVC020 M17/M18 A3012 RMK AO2 SLP251 T11671183
Pressure 30.27 in
Visibility 9.0 miles
Clouds Overcast 2000 ft
Windchill -10 °F
Dew Point -4 °F
Humidity 70%
Rainfall 0.00 in
Snow Depth Not available.
7:11 AM 4:10 PM
Waxing Gibbous, 85% visible
METAR KPHP 101555Z AUTO 09012KT 9SM OVC020 M17/M18 A3012 RMK AO2 SLP251 T11671183

10-Day Weather Forecast

Almanac

Astronomy

Dec. 10, 2016 Rise Set
Actual Time
Civil Twilight
Nautical Twilight
Astronomical Twilight
Moon
Length of Visible Light
Length of Day
Tomorrow will be .
, % of the Moon is Illuminated

Today's Extremes

State Highs State Lows

Community

WunderPhotos

Upload Photos

1,956,576 photos uploaded!

WunderBlog® & News

Nearby

Air Quality

  Air Quality AQ Index Pollutant
Not available.

Snow Depth

Station Depth Elevation

Earthquake Activity

City Distance Mag. Time & Date
Minimum magnitude displayed is 2.5.

Coastal Water Temperatures

Place Temperature

Stations

Nearby Weather Stations

Station Location Temp. Windchill Dew Point Humidity Wind Precip. Elev Updated Type
                   

Watches & Warnings

There are currently no watches in effect.